createdAt,value
2018-11-27T00:00:53.481Z,27.07
2018-11-27T00:03:20.891Z,25.10
2018-11-27T00:05:48.520Z,25.77
2018-11-27T00:08:15.937Z,24.80
2018-11-27T00:10:43.323Z,26.67
2018-11-27T00:13:10.698Z,26.37
2018-11-27T00:15:38.089Z,24.07
2018-11-27T00:18:05.554Z,22.77
2018-11-27T00:20:32.960Z,23.50
2018-11-27T00:23:00.302Z,21.40
2018-11-27T00:25:28.204Z,23.57
2018-11-27T00:27:55.862Z,22.13
2018-11-27T00:30:23.218Z,22.10
2018-11-27T00:32:50.607Z,21.97
2018-11-27T00:35:18.996Z,21.33
2018-11-27T00:37:46.367Z,20.93
2018-11-27T00:40:14.401Z,21.93
2018-11-27T00:42:42.096Z,21.97
2018-11-27T00:45:10.096Z,24.07
2018-11-27T00:47:37.466Z,22.53
2018-11-27T00:50:07.186Z,23.20
2018-11-27T00:52:34.567Z,22.40
2018-11-27T00:55:02.008Z,23.57
2018-11-27T00:57:29.397Z,23.63
2018-11-27T00:59:56.742Z,23.53
2018-11-27T01:02:24.088Z,23.00
2018-11-27T01:04:51.437Z,24.03
2018-11-27T01:07:18.777Z,23.77
2018-11-27T01:09:46.568Z,24.77
2018-11-27T01:12:13.950Z,24.60
2018-11-27T01:14:41.272Z,24.90
2018-11-27T01:17:08.697Z,26.77
2018-11-27T01:19:36.088Z,26.43
2018-11-27T01:22:03.487Z,26.27
2018-11-27T01:24:30.821Z,27.80
2018-11-27T01:26:58.208Z,26.77
2018-11-27T01:29:25.528Z,27.17
2018-11-27T01:34:36.653Z,29.93
2018-11-27T01:37:04.060Z,27.80
2018-11-27T01:39:31.399Z,26.80
2018-11-27T01:41:58.782Z,24.90
2018-11-27T01:44:26.142Z,27.83
2018-11-27T01:46:53.497Z,26.73
2018-11-27T01:49:20.954Z,28.60
2018-11-27T01:51:48.669Z,28.83
2018-11-27T01:54:16.003Z,27.73
2018-11-27T01:56:43.373Z,28.17
2018-11-27T01:59:10.715Z,26.20
2018-11-27T02:01:38.120Z,27.23
2018-11-27T02:04:05.988Z,27.53
2018-11-27T02:06:33.343Z,28.70
2018-11-27T02:09:00.641Z,27.30
2018-11-27T02:11:27.961Z,26.30
2018-11-27T02:13:55.315Z,28.60
2018-11-27T02:16:22.865Z,28.80
2018-11-27T02:18:50.170Z,26.17
2018-11-27T02:21:17.510Z,27.60
2018-11-27T02:23:44.876Z,25.80
2018-11-27T02:26:12.651Z,28.30
2018-11-27T02:28:40.215Z,29.90
2018-11-27T02:31:07.631Z,31.00
2018-11-27T02:33:34.955Z,27.30
2018-11-27T02:36:02.255Z,27.70
2018-11-27T02:38:29.644Z,28.23
2018-11-27T02:40:56.935Z,27.40
2018-11-27T02:43:24.441Z,27.43
2018-11-27T02:45:51.758Z,27.30
2018-11-27T02:48:19.183Z,26.40
2018-11-27T02:50:46.456Z,28.43
2018-11-27T02:53:13.779Z,27.70
2018-11-27T02:55:41.151Z,27.40
2018-11-27T02:58:08.528Z,27.73
2018-11-27T03:00:35.863Z,27.60
2018-11-27T03:03:03.324Z,27.30
2018-11-27T03:05:32.174Z,28.27
2018-11-27T03:07:59.558Z,26.03
2018-11-27T03:10:26.971Z,28.03
2018-11-27T03:12:54.287Z,26.60
2018-11-27T03:15:21.616Z,26.47
2018-11-27T03:17:48.975Z,28.57
2018-11-27T03:20:17.164Z,27.53
2018-11-27T03:22:44.537Z,27.77
2018-11-27T03:25:13.320Z,27.57
2018-11-27T03:27:40.696Z,26.07
2018-11-27T03:30:11.030Z,26.00
2018-11-27T03:32:38.539Z,27.80
2018-11-27T03:35:07.023Z,26.60
2018-11-27T03:37:34.405Z,26.30
2018-11-27T03:40:01.815Z,27.83
2018-11-27T03:42:29.455Z,27.10
2018-11-27T03:44:56.848Z,26.20
2018-11-27T03:47:24.333Z,28.77
2018-11-27T03:49:52.750Z,24.73
2018-11-27T03:52:20.164Z,25.73
2018-11-27T03:54:47.575Z,24.50
2018-11-27T03:57:14.905Z,27.17
2018-11-27T04:05:33.333Z,23.03
2018-11-27T04:08:00.702Z,23.57
2018-11-27T04:10:28.108Z,23.00
2018-11-27T04:12:55.526Z,23.13
2018-11-27T04:15:23.143Z,24.70
2018-11-27T04:17:50.536Z,23.50
2018-11-27T04:20:17.890Z,21.97
2018-11-27T04:22:45.351Z,23.10
2018-11-27T04:25:15.812Z,23.27
2018-11-27T04:27:44.342Z,22.00
2018-11-27T04:30:19.405Z,24.30
2018-11-27T04:32:46.895Z,23.60
2018-11-27T04:35:14.818Z,23.50
2018-11-27T04:37:42.164Z,23.07
2018-11-27T04:40:11.048Z,21.93
2018-11-27T04:42:38.386Z,22.67
2018-11-27T04:45:07.686Z,22.70
2018-11-27T04:47:35.063Z,22.53
2018-11-27T04:50:07.753Z,22.40
2018-11-27T04:52:35.280Z,21.30
2018-11-27T04:55:02.609Z,22.70
2018-11-27T04:57:29.991Z,22.30
2018-11-27T04:59:57.424Z,20.93
2018-11-27T05:02:24.796Z,22.83
2018-11-27T05:04:52.287Z,22.60
2018-11-27T05:07:19.604Z,20.77
2018-11-27T05:09:46.948Z,22.57
2018-11-27T05:12:14.288Z,21.67
2018-11-27T05:14:41.621Z,22.50
2018-11-27T05:17:08.949Z,21.10
2018-11-27T05:19:36.372Z,21.90
2018-11-27T05:22:04.416Z,21.80
2018-11-27T05:24:32.163Z,21.20
2018-11-27T05:26:59.537Z,20.73
2018-11-27T05:29:26.885Z,19.47
2018-11-27T05:31:54.691Z,21.57
2018-11-27T05:34:22.071Z,20.67
2018-11-27T05:36:49.448Z,21.27
2018-11-27T05:39:16.839Z,21.33
2018-11-27T05:41:44.174Z,20.50
2018-11-27T05:44:11.599Z,21.60
2018-11-27T05:46:39.034Z,22.37
2018-11-27T05:49:06.491Z,21.23
2018-11-27T05:51:36.002Z,21.60
2018-11-27T05:54:03.459Z,22.23
2018-11-27T05:56:30.883Z,22.63
2018-11-27T05:58:58.344Z,21.20
2018-11-27T06:01:25.720Z,21.10
2018-11-27T06:03:53.102Z,21.10
2018-11-27T06:06:20.438Z,22.53
2018-11-27T06:08:48.273Z,23.53
2018-11-27T06:11:15.683Z,20.77
2018-11-27T06:13:43.104Z,21.60
2018-11-27T06:16:10.418Z,23.07
2018-11-27T06:18:37.775Z,23.30
2018-11-27T06:21:05.723Z,23.67
2018-11-27T06:23:33.087Z,22.87
2018-11-27T06:26:00.430Z,23.17
2018-11-27T06:28:27.808Z,22.07
2018-11-27T06:30:55.122Z,21.80
2018-11-27T06:33:22.502Z,21.77
2018-11-27T06:35:49.843Z,22.27
2018-11-27T06:38:17.287Z,21.43
2018-11-27T06:40:44.703Z,24.10
2018-11-27T06:43:12.436Z,23.00
2018-11-27T06:45:40.251Z,22.07
2018-11-27T06:48:08.196Z,23.03
2018-11-27T06:50:35.590Z,24.20
2018-11-27T06:53:03.009Z,24.83
2018-11-27T06:55:30.351Z,24.20
2018-11-27T06:57:57.724Z,21.90
2018-11-27T07:00:25.733Z,24.67
2018-11-27T07:02:53.330Z,23.23
2018-11-27T07:05:20.740Z,24.47
2018-11-27T07:07:48.204Z,22.27
2018-11-27T07:10:19.141Z,23.40
2018-11-27T07:12:47.015Z,23.00
2018-11-27T07:15:16.102Z,23.47
2018-11-27T07:17:43.556Z,23.50
2018-11-27T07:20:12.420Z,24.63
2018-11-27T07:22:39.853Z,23.80
2018-11-27T07:25:09.217Z,24.30
2018-11-27T07:27:35.935Z,23.47
2018-11-27T07:30:03.421Z,23.77
2018-11-27T07:32:31.416Z,23.20
2018-11-27T07:34:59.066Z,23.77
2018-11-27T07:37:28.098Z,24.60
2018-11-27T07:39:55.576Z,22.57
2018-11-27T07:42:23.076Z,23.17
2018-11-27T07:44:50.701Z,23.40
2018-11-27T07:47:18.116Z,24.33
2018-11-27T07:49:45.643Z,23.30
2018-11-27T07:52:13.644Z,22.40
2018-11-27T07:54:41.258Z,22.53
2018-11-27T07:57:08.747Z,20.93
2018-11-27T07:59:36.176Z,22.43
2018-11-27T08:02:03.574Z,22.93
2018-11-27T08:04:31.151Z,20.30
2018-11-27T08:06:58.596Z,21.20
2018-11-27T08:09:27.139Z,21.13
2018-11-27T08:11:53.890Z,20.27
2018-11-27T08:14:21.269Z,21.33
2018-11-27T08:16:48.637Z,20.97
2018-11-27T08:19:16.028Z,21.37
2018-11-27T08:21:43.442Z,20.23
2018-11-27T08:24:10.813Z,19.47
2018-11-27T08:26:38.325Z,19.63
2018-11-27T08:29:05.862Z,21.07
2018-11-27T08:31:33.347Z,20.20
2018-11-27T08:34:00.918Z,19.93
2018-11-27T08:36:30.617Z,19.10
2018-11-27T08:38:58.040Z,18.97
2018-11-27T08:41:25.473Z,18.73
2018-11-27T08:43:52.887Z,19.57
2018-11-27T08:46:20.407Z,19.27
2018-11-27T08:48:47.785Z,18.13
2018-11-27T08:51:15.231Z,18.43
2018-11-27T08:53:42.634Z,18.80
2018-11-27T08:56:10.024Z,18.80
2018-11-27T08:58:37.618Z,19.33
2018-11-27T09:01:05.121Z,20.30
2018-11-27T09:03:32.529Z,20.10
2018-11-27T09:05:59.948Z,18.97
2018-11-27T09:08:27.463Z,19.80
2018-11-27T09:10:54.929Z,18.20
2018-11-27T09:13:22.311Z,19.13
2018-11-27T09:15:49.672Z,19.07
2018-11-27T09:18:18.876Z,19.03
2018-11-27T09:20:46.375Z,18.20
2018-11-27T09:23:13.827Z,19.47
2018-11-27T09:25:41.219Z,18.53
2018-11-27T09:28:08.699Z,18.37
2018-11-27T09:30:36.080Z,19.13
2018-11-27T09:33:03.488Z,18.77
2018-11-27T09:35:31.051Z,19.00
2018-11-27T09:37:59.606Z,18.03
2018-11-27T09:40:26.963Z,18.10
2018-11-27T09:42:54.745Z,17.30
2018-11-27T09:45:22.691Z,18.20
2018-11-27T09:47:51.661Z,18.83
2018-11-27T09:50:19.130Z,18.43
2018-11-27T09:52:46.570Z,17.73
2018-11-27T09:55:16.596Z,17.20
2018-11-27T09:57:44.071Z,16.77
2018-11-27T10:00:17.910Z,16.47
2018-11-27T10:02:45.510Z,16.90
2018-11-27T10:05:13.228Z,20.63
2018-11-27T10:07:40.737Z,17.70
2018-11-27T10:10:08.981Z,18.40
2018-11-27T10:12:36.515Z,19.20
2018-11-27T10:15:04.419Z,18.33
2018-11-27T10:17:31.802Z,19.67
2018-11-27T10:19:59.197Z,17.60
2018-11-27T10:22:26.613Z,17.67
2018-11-27T10:24:54.064Z,19.70
2018-11-27T10:27:21.528Z,18.00
2018-11-27T10:29:48.904Z,18.53
2018-11-27T10:32:16.332Z,19.20
2018-11-27T10:34:44.150Z,20.47
2018-11-27T10:37:17.652Z,23.43
2018-11-27T10:39:45.062Z,19.37
2018-11-27T10:42:13.756Z,19.27
2018-11-27T10:44:39.912Z,20.30
2018-11-27T10:47:07.256Z,20.10
2018-11-27T10:49:34.602Z,20.30
2018-11-27T10:52:01.992Z,18.67
2018-11-27T10:54:29.321Z,18.10
2018-11-27T10:56:56.676Z,18.63
2018-11-27T10:59:24.204Z,18.30
2018-11-27T11:01:52.859Z,19.13
2018-11-27T11:04:20.227Z,18.33
2018-11-27T11:06:47.588Z,19.50
2018-11-27T11:09:14.934Z,20.20
2018-11-27T11:11:42.329Z,20.10
2018-11-27T11:14:09.702Z,19.40
2018-11-27T11:16:38.243Z,19.83
2018-11-27T11:19:06.195Z,20.77
2018-11-27T11:21:33.602Z,20.10
2018-11-27T11:24:01.003Z,19.93
2018-11-27T11:26:28.506Z,21.07
2018-11-27T11:28:55.906Z,20.53
2018-11-27T11:31:23.292Z,21.00
2018-11-27T11:33:50.672Z,20.27
2018-11-27T11:36:18.428Z,19.67
2018-11-27T11:38:45.919Z,21.00
2018-11-27T11:41:13.338Z,19.77
2018-11-27T11:43:40.804Z,20.47
2018-11-27T11:46:08.669Z,22.23
2018-11-27T11:48:36.044Z,21.97
2018-11-27T11:51:03.446Z,23.07
2018-11-27T11:53:30.927Z,20.90
2018-11-27T11:55:58.386Z,21.13
2018-11-27T11:58:25.780Z,22.30
2018-11-27T12:00:54.450Z,22.90
2018-11-27T12:03:21.943Z,21.50
2018-11-27T12:08:18.012Z,22.50
2018-11-27T12:10:45.991Z,22.33
2018-11-27T12:13:13.390Z,24.87
2018-11-27T12:15:40.783Z,23.37
2018-11-27T12:18:08.855Z,22.80
2018-11-27T12:20:36.293Z,24.50
2018-11-27T12:23:04.022Z,24.40
2018-11-27T12:25:31.509Z,23.80
2018-11-27T12:27:58.900Z,23.27
2018-11-27T12:30:28.132Z,23.90
2018-11-27T12:32:55.932Z,25.37
2018-11-27T12:35:23.817Z,24.33
2018-11-27T12:38:02.756Z,25.23
2018-11-27T12:40:30.240Z,23.90
2018-11-27T12:42:58.486Z,23.60
2018-11-27T12:45:28.784Z,23.27
2018-11-27T12:47:57.043Z,24.20
2018-11-27T12:50:25.101Z,24.80
2018-11-27T12:52:52.661Z,25.00
2018-11-27T12:55:21.084Z,24.97
2018-11-27T12:57:48.500Z,25.93
2018-11-27T13:00:16.408Z,23.17
2018-11-27T13:02:44.146Z,25.17
2018-11-27T13:05:13.207Z,23.30
2018-11-27T13:07:40.762Z,25.33
2018-11-27T13:10:10.096Z,22.90
2018-11-27T13:12:37.862Z,25.90
2018-11-27T13:15:05.912Z,27.70
2018-11-27T13:17:33.390Z,25.47
2018-11-27T13:20:01.340Z,26.00
2018-11-27T13:22:28.745Z,25.23
2018-11-27T13:24:56.146Z,25.97
2018-11-27T13:27:23.533Z,24.13
2018-11-27T13:29:50.917Z,24.10
2018-11-27T13:32:18.470Z,25.80
2018-11-27T13:34:50.257Z,26.20
2018-11-27T13:37:14.339Z,23.90
2018-11-27T13:39:41.723Z,23.90
2018-11-27T13:42:09.121Z,25.03
2018-11-27T13:44:36.701Z,26.73
2018-11-27T13:47:04.221Z,26.77
2018-11-27T13:49:31.657Z,25.20
2018-11-27T13:51:59.078Z,24.37
2018-11-27T13:54:26.476Z,24.77
2018-11-27T13:56:53.889Z,24.40
2018-11-27T13:59:21.184Z,24.77
2018-11-27T14:01:48.583Z,27.30
2018-11-27T14:04:15.936Z,25.77
2018-11-27T14:06:43.315Z,26.23
2018-11-27T14:09:10.810Z,26.10
2018-11-27T14:11:38.290Z,24.83
2018-11-27T14:14:06.373Z,25.43
2018-11-27T14:16:33.969Z,26.90
2018-11-27T14:19:01.300Z,24.50
2018-11-27T14:21:28.676Z,26.90
2018-11-27T14:23:56.041Z,25.10
2018-11-27T14:26:23.389Z,26.17
2018-11-27T14:28:50.727Z,25.07
2018-11-27T14:31:18.040Z,25.73
2018-11-27T14:33:45.359Z,25.40
2018-11-27T14:36:12.668Z,27.00
2018-11-27T14:38:40.019Z,25.80
2018-11-27T14:41:07.340Z,26.63
2018-11-27T14:43:34.795Z,26.90
2018-11-27T14:46:02.095Z,25.63
2018-11-27T14:48:29.504Z,25.10
2018-11-27T14:50:56.822Z,26.50
2018-11-27T14:53:24.256Z,25.90
2018-11-27T14:55:51.595Z,23.97
2018-11-27T14:58:18.964Z,21.97
2018-11-27T15:00:47.222Z,21.13
2018-11-27T15:03:14.609Z,24.83
2018-11-27T15:05:42.071Z,26.43
2018-11-27T15:08:10.394Z,27.17
2018-11-27T15:10:37.747Z,27.40
2018-11-27T15:13:05.533Z,25.43
2018-11-27T15:15:33.009Z,27.13
2018-11-27T15:18:00.387Z,27.27
2018-11-27T15:20:27.717Z,25.50
2018-11-27T15:22:55.086Z,27.70
2018-11-27T15:25:22.465Z,26.17
2018-11-27T15:27:49.954Z,26.10
2018-11-27T15:30:21.849Z,27.03
2018-11-27T15:32:49.584Z,24.73
2018-11-27T15:35:16.900Z,25.63
2018-11-27T15:37:44.319Z,25.83
2018-11-27T15:40:13.334Z,26.40
2018-11-27T15:42:40.757Z,24.37
2018-11-27T15:45:09.204Z,22.47
2018-11-27T15:47:36.792Z,23.70
2018-11-27T15:50:04.664Z,21.20
2018-11-27T15:52:31.976Z,23.50
2018-11-27T15:54:59.546Z,23.23
2018-11-27T15:57:27.169Z,25.53
2018-11-27T15:59:54.275Z,22.27
2018-11-27T16:02:21.772Z,22.80
2018-11-27T16:04:49.322Z,25.30
2018-11-27T16:07:16.722Z,23.50
2018-11-27T16:09:44.082Z,25.77
2018-11-27T16:12:11.389Z,23.27
2018-11-27T16:14:38.742Z,25.13
2018-11-27T16:17:06.119Z,25.70
2018-11-27T16:19:33.519Z,22.77
2018-11-27T16:22:00.908Z,23.00
2018-11-27T16:24:28.416Z,23.13
2018-11-27T16:26:55.757Z,22.63
2018-11-27T16:29:23.439Z,22.53
2018-11-27T16:31:50.849Z,23.17
2018-11-27T16:34:18.269Z,22.67
2018-11-27T16:36:45.616Z,23.17
2018-11-27T16:39:12.980Z,25.67
2018-11-27T16:41:40.350Z,23.90
2018-11-27T16:44:07.709Z,25.23
2018-11-27T16:46:35.070Z,26.00
2018-11-27T16:49:02.587Z,22.47
2018-11-27T16:51:30.129Z,24.50
2018-11-27T16:53:57.529Z,24.10
2018-11-27T16:56:24.905Z,25.27
2018-11-27T16:58:52.389Z,25.00
2018-11-27T17:01:19.987Z,24.93
2018-11-27T17:03:47.427Z,25.97
2018-11-27T17:06:14.856Z,25.33
2018-11-27T17:08:42.509Z,25.70
2018-11-27T17:11:10.890Z,25.10
2018-11-27T17:13:38.509Z,25.10
2018-11-27T17:16:06.756Z,25.03
2018-11-27T17:18:34.293Z,24.73
2018-11-27T17:21:02.203Z,24.33
2018-11-27T17:23:29.686Z,25.47
2018-11-27T17:26:03.854Z,26.80
2018-11-27T17:28:27.228Z,25.60
2018-11-27T17:30:55.650Z,26.20
2018-11-27T17:33:27.404Z,26.60
2018-11-27T17:35:54.840Z,26.83
2018-11-27T17:38:22.824Z,26.20
2018-11-27T17:40:50.591Z,25.87
2018-11-27T17:43:18.168Z,24.40
2018-11-27T17:45:46.516Z,23.93
2018-11-27T17:48:13.992Z,27.37
2018-11-27T17:50:41.471Z,23.97
2018-11-27T17:53:08.867Z,23.83
2018-11-27T17:55:36.276Z,22.80
2018-11-27T17:58:03.662Z,23.47
2018-11-27T18:00:31.139Z,21.80
2018-11-27T18:03:01.251Z,23.33
2018-11-27T18:05:28.625Z,22.43
2018-11-27T18:07:56.019Z,22.43
2018-11-27T18:10:23.501Z,20.67
2018-11-27T18:12:50.991Z,23.50
2018-11-27T18:15:19.891Z,22.50
2018-11-27T18:17:47.329Z,21.17
2018-11-27T18:20:14.904Z,21.60
2018-11-27T18:22:42.330Z,20.97
2018-11-27T18:25:10.449Z,22.07
2018-11-27T18:27:37.837Z,22.80
2018-11-27T18:30:07.653Z,22.17
2018-11-27T18:32:35.174Z,23.17
2018-11-27T18:35:02.663Z,25.23
2018-11-27T18:37:30.046Z,23.97
2018-11-27T18:39:57.495Z,25.97
2018-11-27T18:42:24.946Z,26.00
2018-11-27T18:44:52.419Z,26.50
2018-11-27T18:47:19.952Z,26.60
2018-11-27T18:49:47.326Z,24.77
2018-11-27T18:52:14.768Z,24.93
2018-11-27T18:54:42.143Z,25.13
2018-11-27T18:57:09.533Z,25.57
2018-11-27T18:59:36.887Z,25.40
2018-11-27T19:02:04.765Z,25.77
2018-11-27T19:04:32.100Z,25.37
2018-11-27T19:06:59.613Z,26.97
2018-11-27T19:09:26.968Z,25.60
2018-11-27T19:11:54.407Z,26.93
2018-11-27T19:14:21.747Z,23.83
2018-11-27T19:16:49.150Z,25.27
2018-11-27T19:19:16.568Z,22.57
2018-11-27T19:21:43.997Z,23.53
2018-11-27T19:24:11.364Z,24.17
2018-11-27T19:26:38.732Z,25.53
2018-11-27T19:29:06.245Z,24.00
2018-11-27T19:31:33.648Z,24.47
2018-11-27T19:34:01.390Z,25.70
2018-11-27T19:36:28.906Z,22.47
2018-11-27T19:38:56.472Z,24.30
2018-11-27T19:41:23.930Z,23.20
2018-11-27T19:43:51.681Z,23.83
2018-11-27T19:46:19.196Z,23.80
2018-11-27T19:48:46.688Z,25.17
2018-11-27T19:51:14.157Z,26.17
2018-11-27T19:53:41.639Z,24.97
2018-11-27T19:56:09.073Z,26.17
2018-11-27T19:58:36.940Z,26.93
2018-11-27T20:01:04.578Z,24.97
2018-11-27T20:03:32.029Z,29.60
2018-11-27T20:05:59.428Z,26.40
2018-11-27T20:08:26.963Z,27.10
2018-11-27T20:10:54.384Z,28.73
2018-11-27T20:13:21.948Z,28.67
2018-11-27T20:15:49.449Z,28.27
2018-11-27T20:18:16.951Z,26.00
2018-11-27T20:20:44.404Z,28.37
2018-11-27T20:23:11.994Z,27.73
2018-11-27T20:25:39.801Z,30.93
2018-11-27T20:28:08.165Z,30.30
2018-11-27T20:30:36.134Z,28.00
2018-11-27T20:33:03.795Z,29.47
2018-11-27T20:35:31.852Z,29.57
2018-11-27T20:38:02.593Z,29.13
2018-11-27T20:40:30.154Z,30.43
2018-11-27T20:42:57.735Z,29.60
2018-11-27T20:45:26.099Z,29.20
2018-11-27T20:47:57.557Z,28.43
2018-11-27T20:50:25.280Z,27.50
2018-11-27T20:52:52.948Z,30.20
2018-11-27T20:55:20.753Z,28.30
2018-11-27T20:57:49.417Z,30.73
2018-11-27T21:00:19.023Z,31.40
2018-11-27T21:02:47.062Z,28.20
2018-11-27T21:05:15.053Z,29.70
2018-11-27T21:07:42.769Z,28.53
2018-11-27T21:10:11.000Z,28.23
2018-11-27T21:12:38.690Z,29.07
2018-11-27T21:15:07.871Z,28.77
2018-11-27T21:17:35.417Z,28.10
2018-11-27T21:20:03.081Z,29.63
2018-11-27T21:22:30.474Z,28.37
2018-11-27T21:24:57.932Z,27.80
2018-11-27T21:27:25.300Z,28.70
2018-11-27T21:29:53.072Z,27.83
2018-11-27T21:32:20.483Z,28.80
2018-11-27T21:34:47.829Z,28.33
2018-11-27T21:37:15.632Z,28.67
2018-11-27T21:39:43.002Z,30.03
2018-11-27T21:42:10.318Z,27.57
2018-11-27T21:44:38.085Z,28.83
2018-11-27T21:47:05.707Z,28.67
2018-11-27T21:49:33.317Z,27.30
2018-11-27T21:52:00.722Z,26.93
2018-11-27T21:54:28.187Z,27.67
2018-11-27T21:56:55.536Z,28.40
2018-11-27T21:59:23.030Z,26.40
2018-11-27T22:01:50.689Z,27.43
2018-11-27T22:04:18.166Z,26.50
2018-11-27T22:06:45.658Z,24.50
2018-11-27T22:09:13.388Z,27.90
2018-11-27T22:11:40.778Z,25.00
2018-11-27T22:14:08.214Z,24.97
2018-11-27T22:16:36.458Z,24.50
2018-11-27T22:19:04.017Z,25.23
2018-11-27T22:21:31.741Z,25.07
2018-11-27T22:23:59.384Z,25.70
2018-11-27T22:26:27.061Z,23.83
2018-11-27T22:28:54.714Z,24.57
2018-11-27T22:31:22.439Z,24.30
2018-11-27T22:33:49.953Z,23.93
2018-11-27T22:36:17.465Z,25.40
2018-11-27T22:38:44.939Z,24.13
2018-11-27T22:41:12.766Z,25.70
2018-11-27T22:43:40.328Z,25.63
2018-11-27T22:46:08.011Z,26.03
2018-11-27T22:48:35.681Z,25.37
2018-11-27T22:51:03.373Z,23.33
2018-11-27T22:53:31.113Z,22.90
2018-11-27T22:55:58.706Z,26.00
2018-11-27T22:58:26.366Z,25.77
2018-11-27T23:00:53.820Z,25.50
2018-11-27T23:03:21.156Z,24.53
2018-11-27T23:05:48.588Z,24.73
2018-11-27T23:08:16.420Z,25.90
2018-11-27T23:10:44.429Z,24.70
2018-11-27T23:13:11.830Z,25.73
2018-11-27T23:15:39.255Z,23.10
2018-11-27T23:18:06.706Z,25.23
2018-11-27T23:20:34.162Z,24.60
2018-11-27T23:23:02.449Z,26.20
2018-11-27T23:25:29.874Z,26.17
2018-11-27T23:27:57.350Z,25.70
2018-11-27T23:30:25.766Z,24.97
2018-11-27T23:32:53.242Z,24.13
2018-11-27T23:35:20.617Z,25.37
2018-11-27T23:37:48.085Z,23.50
2018-11-27T23:40:20.448Z,24.23
2018-11-27T23:42:48.078Z,23.90
2018-11-27T23:45:17.961Z,24.70
2018-11-27T23:47:45.762Z,25.23
2018-11-27T23:50:14.084Z,24.17
2018-11-27T23:52:41.598Z,23.27
2018-11-27T23:55:10.087Z,22.17
2018-11-27T23:57:37.697Z,22.50
